sensor_id;sensor_type;location;lat;lon;timestamp;pressure;altitude;pressure_sealevel;temperature;humidity
33075;BME280;19433;51.292;6.868;2023-07-20T00:02:08;100244.69;;;16.27;100.00
33075;BME280;19433;51.292;6.868;2023-07-20T00:04:33;100232.66;;;16.38;100.00
33075;BME280;19433;51.292;6.868;2023-07-20T00:06:58;100224.28;;;16.38;100.00
33075;BME280;19433;51.292;6.868;2023-07-20T00:09:26;100237.13;;;16.39;100.00
33075;BME280;19433;51.292;6.868;2023-07-20T00:11:53;100234.25;;;16.34;100.00
33075;BME280;19433;51.292;6.868;2023-07-20T00:14:19;100242.88;;;16.33;100.00
33075;BME280;19433;51.292;6.868;2023-07-20T00:16:49;100226.47;;;16.36;100.00
33075;BME280;19433;51.292;6.868;2023-07-20T00:19:20;100238.22;;;16.38;100.00
33075;BME280;19433;51.292;6.868;2023-07-20T00:21:46;100232.94;;;16.25;100.00
33075;BME280;19433;51.292;6.868;2023-07-20T00:24:11;100234.25;;;16.34;100.00
33075;BME280;19433;51.292;6.868;2023-07-20T00:26:36;100244.59;;;16.50;100.00
33075;BME280;19433;51.292;6.868;2023-07-20T00:29:04;100229.22;;;16.48;100.00
33075;BME280;19433;51.292;6.868;2023-07-20T00:31:29;100231.41;;;16.46;100.00
33075;BME280;19433;51.292;6.868;2023-07-20T00:33:54;100214.75;;;16.34;100.00
33075;BME280;19433;51.292;6.868;2023-07-20T00:36:20;100210.16;;;16.28;100.00
33075;BME280;19433;51.292;6.868;2023-07-20T00:38:45;100230.88;;;16.32;100.00
33075;BME280;19433;51.292;6.868;2023-07-20T00:41:10;100219.94;;;16.02;100.00
33075;BME280;19433;51.292;6.868;2023-07-20T00:43:35;100220.31;;;15.94;100.00
33075;BME280;19433;51.292;6.868;2023-07-20T00:46:01;100221.03;;;15.90;100.00
33075;BME280;19433;51.292;6.868;2023-07-20T00:48:29;100230.50;;;15.77;100.00
33075;BME280;19433;51.292;6.868;2023-07-20T00:50:58;100225.94;;;15.71;100.00
33075;BME280;19433;51.292;6.868;2023-07-20T00:53:24;100231.50;;;15.71;100.00
33075;BME280;19433;51.292;6.868;2023-07-20T00:55:50;100227.88;;;15.70;100.00
33075;BME280;19433;51.292;6.868;2023-07-20T00:58:15;100233.78;;;15.74;100.00
33075;BME280;19433;51.292;6.868;2023-07-20T01:00:41;100229.16;;;15.79;100.00
33075;BME280;19433;51.292;6.868;2023-07-20T01:03:06;100237.53;;;15.79;100.00
33075;BME280;19433;51.292;6.868;2023-07-20T01:05:51;100217.16;;;15.91;100.00
33075;BME280;19433;51.292;6.868;2023-07-20T01:08:31;100241.13;;;16.03;100.00
33075;BME280;19433;51.292;6.868;2023-07-20T01:11:13;100223.47;;;15.86;100.00
33075;BME280;19433;51.292;6.868;2023-07-20T01:13:42;100234.22;;;15.94;100.00
33075;BME280;19433;51.292;6.868;2023-07-20T01:16:08;100238.75;;;15.72;100.00
33075;BME280;19433;51.292;6.868;2023-07-20T01:18:34;100235.97;;;15.72;100.00
33075;BME280;19433;51.292;6.868;2023-07-20T01:21:09;100222.63;;;15.51;100.00
33075;BME280;19433;51.292;6.868;2023-07-20T01:24:00;100231.22;;;15.49;100.00
33075;BME280;19433;51.292;6.868;2023-07-20T01:32:00;100229.53;;;15.48;100.00
33075;BME280;19433;51.292;6.868;2023-07-20T01:34:28;100229.03;;;15.28;100.00
33075;BME280;19433;51.292;6.868;2023-07-20T01:36:54;100224.81;;;15.48;100.00
33075;BME280;19433;51.292;6.868;2023-07-20T01:39:21;100232.09;;;15.73;100.00
33075;BME280;19433;51.292;6.868;2023-07-20T01:41:47;100228.69;;;15.82;100.00
33075;BME280;19433;51.292;6.868;2023-07-20T01:44:12;100228.56;;;15.77;100.00
33075;BME280;19433;51.292;6.868;2023-07-20T01:46:38;100228.56;;;15.77;100.00
33075;BME280;19433;51.292;6.868;2023-07-20T01:49:03;100225.41;;;15.74;100.00
33075;BME280;19433;51.292;6.868;2023-07-20T01:51:29;100221.94;;;15.67;100.00
33075;BME280;19433;51.292;6.868;2023-07-20T01:53:54;100220.59;;;15.69;100.00
33075;BME280;19433;51.292;6.868;2023-07-20T01:56:20;100222.28;;;15.70;100.00
33075;BME280;19433;51.292;6.868;2023-07-20T01:58:45;100220.34;;;15.71;100.00
33075;BME280;19433;51.292;6.868;2023-07-20T02:01:10;100213.47;;;15.73;100.00
33075;BME280;19433;51.292;6.868;2023-07-20T02:03:36;100200.63;;;15.61;100.00
33075;BME280;19433;51.292;6.868;2023-07-20T02:06:01;100210.78;;;15.67;100.00
33075;BME280;19433;51.292;6.868;2023-07-20T02:08:26;100214.28;;;15.39;100.00
33075;BME280;19433;51.292;6.868;2023-07-20T02:10:52;100210.91;;;15.37;100.00
33075;BME280;19433;51.292;6.868;2023-07-20T02:13:17;100205.94;;;15.27;100.00
33075;BME280;19433;51.292;6.868;2023-07-20T02:15:42;100191.63;;;15.00;100.00
33075;BME280;19433;51.292;6.868;2023-07-20T02:18:08;100206.16;;;15.02;100.00
33075;BME280;19433;51.292;6.868;2023-07-20T02:20:35;100210.00;;;14.90;100.00
33075;BME280;19433;51.292;6.868;2023-07-20T02:23:00;100203.69;;;14.71;100.00
33075;BME280;19433;51.292;6.868;2023-07-20T02:25:25;100208.97;;;14.61;100.00
33075;BME280;19433;51.292;6.868;2023-07-20T02:27:51;100208.38;;;14.59;100.00
33075;BME280;19433;51.292;6.868;2023-07-20T02:30:16;100192.91;;;14.63;100.00
33075;BME280;19433;51.292;6.868;2023-07-20T02:32:42;100214.63;;;14.54;100.00
33075;BME280;19433;51.292;6.868;2023-07-20T02:35:11;100210.34;;;14.40;100.00
33075;BME280;19433;51.292;6.868;2023-07-20T02:37:36;100215.91;;;14.40;100.00
33075;BME280;19433;51.292;6.868;2023-07-20T02:40:02;100219.72;;;14.39;100.00
33075;BME280;19433;51.292;6.868;2023-07-20T02:42:29;100225.53;;;14.37;100.00
33075;BME280;19433;51.292;6.868;2023-07-20T02:44:54;100215.59;;;14.30;100.00
33075;BME280;19433;51.292;6.868;2023-07-20T02:47:19;100221.53;;;14.33;100.00
33075;BME280;19433;51.292;6.868;2023-07-20T02:49:45;100222.75;;;14.37;100.00
33075;BME280;19433;51.292;6.868;2023-07-20T02:52:10;100226.09;;;14.46;100.00
33075;BME280;19433;51.292;6.868;2023-07-20T02:54:36;100225.13;;;14.52;100.00
33075;BME280;19433;51.292;6.868;2023-07-20T02:57:01;100220.69;;;14.51;100.00
33075;BME280;19433;51.292;6.868;2023-07-20T02:59:27;100210.88;;;14.49;100.00
33075;BME280;19433;51.292;6.868;2023-07-20T03:01:52;100214.50;;;14.49;100.00
33075;BME280;19433;51.292;6.868;2023-07-20T03:04:17;100207.09;;;14.43;100.00
33075;BME280;19433;51.292;6.868;2023-07-20T03:06:43;100216.34;;;14.37;100.00
33075;BME280;19433;51.292;6.868;2023-07-20T03:09:08;100219.22;;;14.49;100.00
33075;BME280;19433;51.292;6.868;2023-07-20T03:11:34;100217.06;;;14.32;100.00
33075;BME280;19433;51.292;6.868;2023-07-20T03:13:59;100230.00;;;14.38;100.00
33075;BME280;19433;51.292;6.868;2023-07-20T03:16:25;100226.59;;;14.36;100.00
33075;BME280;19433;51.292;6.868;2023-07-20T03:18:51;100235.78;;;14.37;100.00
33075;BME280;19433;51.292;6.868;2023-07-20T03:21:17;100235.75;;;14.43;100.00
33075;BME280;19433;51.292;6.868;2023-07-20T03:23:42;100237.94;;;14.53;100.00
33075;BME280;19433;51.292;6.868;2023-07-20T03:26:08;100233.78;;;14.62;100.00
33075;BME280;19433;51.292;6.868;2023-07-20T03:28:37;100225.53;;;14.67;100.00
33075;BME280;19433;51.292;6.868;2023-07-20T03:31:03;100237.19;;;14.76;100.00
33075;BME280;19433;51.292;6.868;2023-07-20T03:33:29;100230.41;;;14.72;100.00
33075;BME280;19433;51.292;6.868;2023-07-20T03:35:55;100226.31;;;14.86;100.00
33075;BME280;19433;51.292;6.868;2023-07-20T03:38:22;100237.13;;;15.06;100.00
33075;BME280;19433;51.292;6.868;2023-07-20T03:40:58;100234.34;;;15.18;100.00
33075;BME280;19433;51.292;6.868;2023-07-20T03:43:25;100244.88;;;15.16;100.00
33075;BME280;19433;51.292;6.868;2023-07-20T03:45:52;100251.06;;;15.18;100.00
33075;BME280;19433;51.292;6.868;2023-07-20T03:48:22;100239.81;;;15.24;100.00
33075;BME280;19433;51.292;6.868;2023-07-20T03:50:49;100239.94;;;15.29;100.00
33075;BME280;19433;51.292;6.868;2023-07-20T03:53:15;100248.03;;;15.19;100.00
33075;BME280;19433;51.292;6.868;2023-07-20T03:55:44;100251.66;;;15.08;100.00
33075;BME280;19433;51.292;6.868;2023-07-20T03:58:09;100250.19;;;15.05;100.00
33075;BME280;19433;51.292;6.868;2023-07-20T04:00:34;100261.22;;;15.12;100.00
33075;BME280;19433;51.292;6.868;2023-07-20T04:03:00;100263.88;;;15.19;100.00
33075;BME280;19433;51.292;6.868;2023-07-20T04:05:26;100261.47;;;15.22;100.00
33075;BME280;19433;51.292;6.868;2023-07-20T04:07:52;100263.66;;;15.32;100.00
33075;BME280;19433;51.292;6.868;2023-07-20T04:10:20;100259.31;;;15.36;100.00
33075;BME280;19433;51.292;6.868;2023-07-20T04:12:45;100262.94;;;15.48;100.00
33075;BME280;19433;51.292;6.868;2023-07-20T04:15:13;100259.91;;;15.38;100.00
33075;BME280;19433;51.292;6.868;2023-07-20T04:17:40;100263.31;;;15.52;100.00
33075;BME280;19433;51.292;6.868;2023-07-20T04:20:06;100270.22;;;15.49;100.00
33075;BME280;19433;51.292;6.868;2023-07-20T04:22:32;100259.22;;;15.42;100.00
33075;BME280;19433;51.292;6.868;2023-07-20T04:24:57;100261.16;;;15.42;100.00
33075;BME280;19433;51.292;6.868;2023-07-20T04:27:23;100268.81;;;15.58;100.00
33075;BME280;19433;51.292;6.868;2023-07-20T04:29:48;100268.88;;;15.52;100.00
33075;BME280;19433;51.292;6.868;2023-07-20T04:32:14;100277.25;;;15.63;100.00
33075;BME280;19433;51.292;6.868;2023-07-20T04:34:39;100281.13;;;15.62;100.00
33075;BME280;19433;51.292;6.868;2023-07-20T04:37:05;100274.97;;;15.72;100.00
33075;BME280;19433;51.292;6.868;2023-07-20T04:39:30;100279.06;;;15.81;100.00
33075;BME280;19433;51.292;6.868;2023-07-20T04:41:56;100289.00;;;16.00;100.00
33075;BME280;19433;51.292;6.868;2023-07-20T04:44:21;100291.88;;;16.17;100.00
33075;BME280;19433;51.292;6.868;2023-07-20T04:46:46;100292.97;;;16.16;100.00
33075;BME280;19433;51.292;6.868;2023-07-20T04:49:12;100282.94;;;16.03;100.00
33075;BME280;19433;51.292;6.868;2023-07-20T04:51:38;100281.44;;;16.12;100.00
33075;BME280;19433;51.292;6.868;2023-07-20T04:54:03;100289.41;;;16.21;100.00
33075;BME280;19433;51.292;6.868;2023-07-20T04:56:29;100280.44;;;16.30;100.00
33075;BME280;19433;51.292;6.868;2023-07-20T04:58:55;100290.72;;;16.41;100.00
33075;BME280;19433;51.292;6.868;2023-07-20T05:01:20;100294.91;;;16.56;100.00
33075;BME280;19433;51.292;6.868;2023-07-20T05:03:45;100285.53;;;16.73;100.00
33075;BME280;19433;51.292;6.868;2023-07-20T05:06:12;100297.38;;;16.80;100.00
33075;BME280;19433;51.292;6.868;2023-07-20T05:08:37;100296.13;;;16.88;100.00
33075;BME280;19433;51.292;6.868;2023-07-20T05:11:04;100303.91;;;16.86;100.00
33075;BME280;19433;51.292;6.868;2023-07-20T05:13:29;100294.56;;;16.80;100.00
33075;BME280;19433;51.292;6.868;2023-07-20T05:15:54;100287.03;;;16.93;100.00
33075;BME280;19433;51.292;6.868;2023-07-20T05:18:20;100298.28;;;16.69;100.00
33075;BME280;19433;51.292;6.868;2023-07-20T05:20:49;100298.75;;;16.66;100.00
33075;BME280;19433;51.292;6.868;2023-07-20T05:23:17;100300.97;;;16.52;100.00
33075;BME280;19433;51.292;6.868;2023-07-20T05:25:43;100294.78;;;16.62;100.00
33075;BME280;19433;51.292;6.868;2023-07-20T05:28:08;100284.47;;;16.51;100.00
33075;BME280;19433;51.292;6.868;2023-07-20T05:30:35;100302.75;;;16.70;100.00
33075;BME280;19433;51.292;6.868;2023-07-20T05:33:00;100288.25;;;16.85;100.00
33075;BME280;19433;51.292;6.868;2023-07-20T05:35:26;100304.97;;;17.13;100.00
33075;BME280;19433;51.292;6.868;2023-07-20T05:37:51;100306.75;;;17.19;100.00
33075;BME280;19433;51.292;6.868;2023-07-20T05:40:17;100294.66;;;17.31;100.00
33075;BME280;19433;51.292;6.868;2023-07-20T05:42:46;100305.25;;;17.45;100.00
33075;BME280;19433;51.292;6.868;2023-07-20T05:45:13;100311.47;;;17.64;100.00
33075;BME280;19433;51.292;6.868;2023-07-20T05:47:39;100309.06;;;17.73;100.00
33075;BME280;19433;51.292;6.868;2023-07-20T05:50:05;100311.19;;;17.82;99.50
33075;BME280;19433;51.292;6.868;2023-07-20T05:52:30;100302.63;;;17.72;100.00
33075;BME280;19433;51.292;6.868;2023-07-20T05:54:55;100304.16;;;17.80;99.79
33075;BME280;19433;51.292;6.868;2023-07-20T05:57:21;100304.88;;;17.70;98.69
33075;BME280;19433;51.292;6.868;2023-07-20T05:59:46;100319.72;;;17.92;98.30
33075;BME280;19433;51.292;6.868;2023-07-20T06:02:11;100308.69;;;18.03;97.46
33075;BME280;19433;51.292;6.868;2023-07-20T06:04:37;100329.56;;;17.95;96.13
33075;BME280;19433;51.292;6.868;2023-07-20T06:07:02;100325.63;;;18.13;95.32
33075;BME280;19433;51.292;6.868;2023-07-20T06:09:27;100325.75;;;18.23;94.94
33075;BME280;19433;51.292;6.868;2023-07-20T06:11:53;100336.31;;;18.38;94.08
33075;BME280;19433;51.292;6.868;2023-07-20T06:14:18;100323.25;;;18.43;92.74
33075;BME280;19433;51.292;6.868;2023-07-20T06:16:44;100331.25;;;18.56;93.10
33075;BME280;19433;51.292;6.868;2023-07-20T06:19:09;100338.94;;;18.44;91.87
33075;BME280;19433;51.292;6.868;2023-07-20T06:21:37;100342.56;;;18.61;92.33
33075;BME280;19433;51.292;6.868;2023-07-20T06:24:02;100334.66;;;18.58;90.57
33075;BME280;19433;51.292;6.868;2023-07-20T06:26:27;100346.09;;;18.57;91.59
33075;BME280;19433;51.292;6.868;2023-07-20T06:28:55;100349.72;;;19.01;90.47
33075;BME280;19433;51.292;6.868;2023-07-20T06:31:20;100345.78;;;19.51;87.92
33075;BME280;19433;51.292;6.868;2023-07-20T06:33:45;100345.34;;;19.64;86.10
33075;BME280;19433;51.292;6.868;2023-07-20T06:36:11;100352.63;;;19.65;84.95
33075;BME280;19433;51.292;6.868;2023-07-20T06:38:36;100346.19;;;19.64;85.35
33075;BME280;19433;51.292;6.868;2023-07-20T06:41:02;100343.97;;;19.66;85.52
33075;BME280;19433;51.292;6.868;2023-07-20T06:43:27;100343.13;;;19.71;85.05
33075;BME280;19433;51.292;6.868;2023-07-20T06:45:52;100348.81;;;20.60;82.44
33075;BME280;19433;51.292;6.868;2023-07-20T06:48:21;100359.47;;;20.63;80.76
33075;BME280;19433;51.292;6.868;2023-07-20T06:50:47;100352.72;;;21.32;76.43
33075;BME280;19433;51.292;6.868;2023-07-20T06:53:12;100342.69;;;20.79;80.43
33075;BME280;19433;51.292;6.868;2023-07-20T06:55:38;100354.16;;;21.95;74.88
33075;BME280;19433;51.292;6.868;2023-07-20T06:58:03;100351.91;;;22.18;73.25
33075;BME280;19433;51.292;6.868;2023-07-20T07:00:28;100358.44;;;22.93;70.25
33075;BME280;19433;51.292;6.868;2023-07-20T07:02:54;100369.44;;;24.93;61.13
33075;BME280;19433;51.292;6.868;2023-07-20T07:05:19;100371.97;;;25.93;53.77
33075;BME280;19433;51.292;6.868;2023-07-20T07:07:44;100365.81;;;25.35;54.63
33075;BME280;19433;51.292;6.868;2023-07-20T07:10:10;100374.59;;;26.96;51.82
33075;BME280;19433;51.292;6.868;2023-07-20T07:12:35;100387.88;;;28.84;45.95
33075;BME280;19433;51.292;6.868;2023-07-20T07:15:03;100382.84;;;27.47;46.29
33075;BME280;19433;51.292;6.868;2023-07-20T07:17:29;100380.56;;;28.16;47.14
33075;BME280;19433;51.292;6.868;2023-07-20T07:19:54;100388.78;;;28.40;44.35
33075;BME280;19433;51.292;6.868;2023-07-20T07:22:20;100373.19;;;27.21;45.46
33075;BME280;19433;51.292;6.868;2023-07-20T07:24:46;100375.19;;;26.66;49.81
33075;BME280;19433;51.292;6.868;2023-07-20T07:27:12;100381.97;;;26.05;49.32
33075;BME280;19433;51.292;6.868;2023-07-20T07:29:37;100373.53;;;25.48;52.43
33075;BME280;19433;51.292;6.868;2023-07-20T07:32:03;100389.06;;;25.51;54.27
33075;BME280;19433;51.292;6.868;2023-07-20T07:34:28;100377.63;;;25.93;50.00
33075;BME280;19433;51.292;6.868;2023-07-20T07:36:53;100381.28;;;27.99;45.32
33075;BME280;19433;51.292;6.868;2023-07-20T07:39:19;100390.13;;;28.43;45.28
33075;BME280;19433;51.292;6.868;2023-07-20T07:41:44;100396.16;;;27.60;44.63
33075;BME280;19433;51.292;6.868;2023-07-20T07:44:09;100389.13;;;26.35;47.92
33075;BME280;19433;51.292;6.868;2023-07-20T07:46:34;100395.41;;;25.00;51.71
33075;BME280;19433;51.292;6.868;2023-07-20T07:49:00;100394.38;;;24.04;54.96
33075;BME280;19433;51.292;6.868;2023-07-20T07:51:25;100383.72;;;23.13;59.65
33075;BME280;19433;51.292;6.868;2023-07-20T07:53:52;100385.94;;;23.21;62.31
33075;BME280;19433;51.292;6.868;2023-07-20T07:56:17;100387.94;;;23.15;60.80
33075;BME280;19433;51.292;6.868;2023-07-20T07:58:46;100397.03;;;22.97;59.77
33075;BME280;19433;51.292;6.868;2023-07-20T08:01:11;100400.81;;;25.20;54.32
33075;BME280;19433;51.292;6.868;2023-07-20T08:03:37;100400.00;;;27.28;47.43
33075;BME280;19433;51.292;6.868;2023-07-20T08:06:02;100415.69;;;29.53;42.12
33075;BME280;19433;51.292;6.868;2023-07-20T08:08:29;100413.16;;;29.51;40.38
33075;BME280;19433;51.292;6.868;2023-07-20T08:10:55;100416.38;;;31.38;38.25
33075;BME280;19433;51.292;6.868;2023-07-20T08:13:20;100421.13;;;31.55;37.62
33075;BME280;19433;51.292;6.868;2023-07-20T08:15:49;100430.38;;;32.89;34.42
33075;BME280;19433;51.292;6.868;2023-07-20T08:18:15;100423.00;;;32.55;34.34
33075;BME280;19433;51.292;6.868;2023-07-20T08:20:43;100421.16;;;32.17;34.97
33075;BME280;19433;51.292;6.868;2023-07-20T08:23:09;100424.94;;;31.67;35.01
33075;BME280;19433;51.292;6.868;2023-07-20T08:25:36;100423.25;;;29.83;36.68
33075;BME280;19433;51.292;6.868;2023-07-20T08:28:04;100419.03;;;30.67;35.83
33075;BME280;19433;51.292;6.868;2023-07-20T08:30:40;100419.91;;;29.90;37.23
33075;BME280;19433;51.292;6.868;2023-07-20T08:33:06;100426.66;;;32.76;33.35
33075;BME280;19433;51.292;6.868;2023-07-20T08:35:31;100433.22;;;33.98;30.91
33075;BME280;19433;51.292;6.868;2023-07-20T08:37:56;100434.56;;;33.64;30.04
33075;BME280;19433;51.292;6.868;2023-07-20T08:40:21;100441.47;;;34.83;30.01
33075;BME280;19433;51.292;6.868;2023-07-20T08:42:47;100444.72;;;35.76;28.13
33075;BME280;19433;51.292;6.868;2023-07-20T08:45:13;100443.00;;;35.24;28.38
33075;BME280;19433;51.292;6.868;2023-07-20T08:47:40;100435.88;;;32.61;30.25
33075;BME280;19433;51.292;6.868;2023-07-20T08:50:08;100430.38;;;30.84;33.64
33075;BME280;19433;51.292;6.868;2023-07-20T08:52:34;100433.19;;;30.03;34.66
33075;BME280;19433;51.292;6.868;2023-07-20T08:55:00;100435.19;;;30.11;35.51
33075;BME280;19433;51.292;6.868;2023-07-20T08:57:28;100426.41;;;32.15;34.09
33075;BME280;19433;51.292;6.868;2023-07-20T08:59:55;100439.00;;;33.86;29.57
33075;BME280;19433;51.292;6.868;2023-07-20T09:02:24;100435.41;;;33.77;30.77
33075;BME280;19433;51.292;6.868;2023-07-20T09:04:51;100437.13;;;34.46;28.28
33075;BME280;19433;51.292;6.868;2023-07-20T09:07:16;100435.13;;;33.94;27.84
33075;BME280;19433;51.292;6.868;2023-07-20T09:09:42;100434.31;;;32.51;31.46
33075;BME280;19433;51.292;6.868;2023-07-20T09:12:15;100437.63;;;32.74;30.46
33075;BME280;19433;51.292;6.868;2023-07-20T09:14:43;100431.69;;;33.03;30.26
33075;BME280;19433;51.292;6.868;2023-07-20T09:17:12;100433.56;;;32.42;31.59
33075;BME280;19433;51.292;6.868;2023-07-20T09:19:38;100425.50;;;33.62;29.89
33075;BME280;19433;51.292;6.868;2023-07-20T09:22:05;100443.13;;;35.28;27.58
33075;BME280;19433;51.292;6.868;2023-07-20T09:24:31;100452.75;;;37.02;25.32
33075;BME280;19433;51.292;6.868;2023-07-20T09:27:01;100458.63;;;38.08;24.06
33075;BME280;19433;51.292;6.868;2023-07-20T09:29:29;100444.34;;;38.15;23.83
33075;BME280;19433;51.292;6.868;2023-07-20T09:32:02;100446.78;;;36.30;24.27
33075;BME280;19433;51.292;6.868;2023-07-20T09:34:29;100433.81;;;35.03;26.49
33075;BME280;19433;51.292;6.868;2023-07-20T09:36:55;100440.22;;;34.81;26.19
33075;BME280;19433;51.292;6.868;2023-07-20T09:39:20;100426.22;;;33.83;27.89
33075;BME280;19433;51.292;6.868;2023-07-20T09:41:46;100436.41;;;35.24;26.83
33075;BME280;19433;51.292;6.868;2023-07-20T09:44:13;100428.13;;;34.75;26.53
33075;BME280;19433;51.292;6.868;2023-07-20T09:46:43;100422.69;;;33.38;27.59
33075;BME280;19433;51.292;6.868;2023-07-20T09:49:09;100428.94;;;34.76;28.04
33075;BME280;19433;51.292;6.868;2023-07-20T09:51:35;100418.56;;;35.81;26.19
33075;BME280;19433;51.292;6.868;2023-07-20T09:54:01;100426.38;;;34.86;25.76
33075;BME280;19433;51.292;6.868;2023-07-20T09:56:30;100416.72;;;32.07;29.41
33075;BME280;19433;51.292;6.868;2023-07-20T09:58:56;100405.06;;;31.21;30.35
33075;BME280;19433;51.292;6.868;2023-07-20T10:01:22;100411.09;;;33.10;28.42
33075;BME280;19433;51.292;6.868;2023-07-20T10:03:51;100423.44;;;35.46;26.15
33075;BME280;19433;51.292;6.868;2023-07-20T10:06:21;100437.03;;;37.68;22.77
33075;BME280;19433;51.292;6.868;2023-07-20T10:08:52;100431.78;;;37.51;22.64
33075;BME280;19433;51.292;6.868;2023-07-20T10:11:18;100437.91;;;37.98;21.93
33075;BME280;19433;51.292;6.868;2023-07-20T10:13:46;100442.03;;;39.38;20.02
33075;BME280;19433;51.292;6.868;2023-07-20T10:16:22;100445.78;;;40.98;19.76
33075;BME280;19433;51.292;6.868;2023-07-20T10:21:29;100452.84;;;41.97;19.05
33075;BME280;19433;51.292;6.868;2023-07-20T10:23:59;100435.06;;;39.47;20.59
33075;BME280;19433;51.292;6.868;2023-07-20T10:26:25;100421.81;;;35.80;23.59
33075;BME280;19433;51.292;6.868;2023-07-20T10:28:51;100408.72;;;30.02;31.36
33075;BME280;19433;51.292;6.868;2023-07-20T10:31:17;100390.06;;;28.12;34.61
33075;BME280;19433;51.292;6.868;2023-07-20T10:33:43;100395.13;;;29.99;32.86
33075;BME280;19433;51.292;6.868;2023-07-20T10:36:09;100398.69;;;30.77;31.78
33075;BME280;19433;51.292;6.868;2023-07-20T10:38:41;100389.94;;;31.20;32.09
33075;BME280;19433;51.292;6.868;2023-07-20T10:43:43;100410.28;;;34.54;25.09
33075;BME280;19433;51.292;6.868;2023-07-20T10:46:11;100409.88;;;36.16;22.16
33075;BME280;19433;51.292;6.868;2023-07-20T10:48:59;100410.34;;;38.05;21.42
33075;BME280;19433;51.292;6.868;2023-07-20T10:51:25;100411.66;;;40.38;18.81
33075;BME280;19433;51.292;6.868;2023-07-20T10:53:50;100400.94;;;38.41;21.41
33075;BME280;19433;51.292;6.868;2023-07-20T10:56:21;100381.06;;;34.20;24.10
33075;BME280;19433;51.292;6.868;2023-07-20T10:58:47;100384.97;;;33.36;27.34
33075;BME280;19433;51.292;6.868;2023-07-20T11:01:18;100389.13;;;35.53;25.31
33075;BME280;19433;51.292;6.868;2023-07-20T11:03:49;100386.72;;;35.90;24.86
33075;BME280;19433;51.292;6.868;2023-07-20T11:08:55;100381.66;;;35.68;22.56
33075;BME280;19433;51.292;6.868;2023-07-20T11:11:24;100367.88;;;34.91;24.61
33075;BME280;19433;51.292;6.868;2023-07-20T11:16:43;100373.88;;;36.64;22.16
33075;BME280;19433;51.292;6.868;2023-07-20T11:21:42;100374.03;;;36.72;21.46
33075;BME280;19433;51.292;6.868;2023-07-20T11:24:08;100374.25;;;34.84;24.39
33075;BME280;19433;51.292;6.868;2023-07-20T11:26:44;100371.69;;;34.23;25.52
33075;BME280;19433;51.292;6.868;2023-07-20T11:29:10;100362.09;;;33.76;25.37
33075;BME280;19433;51.292;6.868;2023-07-20T11:31:43;100355.56;;;32.54;27.21
33075;BME280;19433;51.292;6.868;2023-07-20T11:34:16;100350.47;;;30.55;29.23
33075;BME280;19433;51.292;6.868;2023-07-20T11:36:44;100356.06;;;30.81;29.03
33075;BME280;19433;51.292;6.868;2023-07-20T11:39:11;100336.31;;;27.35;32.81
33075;BME280;19433;51.292;6.868;2023-07-20T11:41:37;100345.94;;;28.67;33.00
33075;BME280;19433;51.292;6.868;2023-07-20T11:44:04;100356.09;;;31.01;29.56
33075;BME280;19433;51.292;6.868;2023-07-20T11:46:29;100353.81;;;33.22;27.14
33075;BME280;19433;51.292;6.868;2023-07-20T11:48:58;100366.81;;;35.66;25.51
33075;BME280;19433;51.292;6.868;2023-07-20T11:51:28;100368.50;;;37.58;22.76
33075;BME280;19433;51.292;6.868;2023-07-20T11:53:54;100374.16;;;39.22;18.77
33075;BME280;19433;51.292;6.868;2023-07-20T11:56:20;100378.16;;;39.61;17.99
33075;BME280;19433;51.292;6.868;2023-07-20T11:58:45;100360.84;;;37.99;19.19
33075;BME280;19433;51.292;6.868;2023-07-20T12:01:12;100363.75;;;39.10;18.03
33075;BME280;19433;51.292;6.868;2023-07-20T12:03:38;100366.13;;;39.01;19.18
33075;BME280;19433;51.292;6.868;2023-07-20T12:06:07;100360.75;;;38.25;20.28
33075;BME280;19433;51.292;6.868;2023-07-20T12:08:33;100342.81;;;36.12;20.76
33075;BME280;19433;51.292;6.868;2023-07-20T12:10:59;100329.69;;;34.15;23.33
33075;BME280;19433;51.292;6.868;2023-07-20T12:13:35;100326.13;;;31.66;27.27
33075;BME280;19433;51.292;6.868;2023-07-20T12:16:08;100324.94;;;29.77;30.35
33075;BME280;19433;51.292;6.868;2023-07-20T12:18:37;100313.47;;;28.60;31.33
33075;BME280;19433;51.292;6.868;2023-07-20T12:21:02;100320.59;;;29.62;30.12
33075;BME280;19433;51.292;6.868;2023-07-20T12:23:38;100331.63;;;29.72;29.31
33075;BME280;19433;51.292;6.868;2023-07-20T12:26:09;100321.56;;;29.49;31.78
33075;BME280;19433;51.292;6.868;2023-07-20T12:28:41;100319.59;;;28.45;32.74
33075;BME280;19433;51.292;6.868;2023-07-20T12:31:08;100315.34;;;28.11;34.32
33075;BME280;19433;51.292;6.868;2023-07-20T12:33:33;100309.78;;;27.75;33.34
33075;BME280;19433;51.292;6.868;2023-07-20T12:36:00;100306.28;;;28.00;33.29
33075;BME280;19433;51.292;6.868;2023-07-20T12:38:26;100308.13;;;27.38;32.75
33075;BME280;19433;51.292;6.868;2023-07-20T12:40:53;100302.59;;;27.33;33.46
33075;BME280;19433;51.292;6.868;2023-07-20T12:43:20;100303.91;;;27.36;31.92
33075;BME280;19433;51.292;6.868;2023-07-20T12:45:45;100300.75;;;27.15;33.96
33075;BME280;19433;51.292;6.868;2023-07-20T12:48:10;100302.47;;;27.83;32.15
33075;BME280;19433;51.292;6.868;2023-07-20T12:50:36;100311.00;;;29.32;31.62
33075;BME280;19433;51.292;6.868;2023-07-20T12:53:01;100308.50;;;31.85;26.65
33075;BME280;19433;51.292;6.868;2023-07-20T12:55:29;100309.41;;;33.16;24.72
33075;BME280;19433;51.292;6.868;2023-07-20T12:57:54;100312.41;;;33.44;25.31
33075;BME280;19433;51.292;6.868;2023-07-20T13:00:20;100325.19;;;32.73;26.11
33075;BME280;19433;51.292;6.868;2023-07-20T13:02:47;100306.97;;;31.46;27.54